sensor_id;sensor_type;location;lat;lon;timestamp;pressure;altitude;pressure_sealevel;temperature;humidity
25947;BME280;13745;51.470;9.894;2023-04-23T00:01:51;98441.63;;;19.85;55.80
25947;BME280;13745;51.470;9.894;2023-04-23T00:04:36;98442.69;;;19.82;55.92
25947;BME280;13745;51.470;9.894;2023-04-23T00:07:22;98445.63;;;19.78;56.05
25947;BME280;13745;51.470;9.894;2023-04-23T00:10:09;98435.28;;;19.75;56.30
25947;BME280;13745;51.470;9.894;2023-04-23T00:12:55;98440.66;;;19.73;56.49
25947;BME280;13745;51.470;9.894;2023-04-23T00:15:41;98433.72;;;19.72;56.55
25947;BME280;13745;51.470;9.894;2023-04-23T00:18:26;98430.44;;;19.69;56.64
25947;BME280;13745;51.470;9.894;2023-04-23T00:21:12;98435.81;;;19.67;56.79
25947;BME280;13745;51.470;9.894;2023-04-23T00:23:57;98431.59;;;19.64;56.77
25947;BME280;13745;51.470;9.894;2023-04-23T00:26:44;98425.78;;;19.59;57.04
25947;BME280;13745;51.470;9.894;2023-04-23T00:29:29;98430.19;;;19.59;57.12
25947;BME280;13745;51.470;9.894;2023-04-23T00:32:14;98432.94;;;19.57;57.11
25947;BME280;13745;51.470;9.894;2023-04-23T00:34:59;98421.66;;;19.55;57.42
25947;BME280;13745;51.470;9.894;2023-04-23T00:37:44;98427.09;;;19.52;57.63
25947;BME280;13745;51.470;9.894;2023-04-23T00:40:29;98426.47;;;19.49;57.96
25947;BME280;13745;51.470;9.894;2023-04-23T00:43:15;98433.72;;;19.45;58.23
25947;BME280;13745;51.470;9.894;2023-04-23T00:46:02;98434.00;;;19.41;58.48
25947;BME280;13745;51.470;9.894;2023-04-23T00:48:47;98429.91;;;19.36;58.68
25947;BME280;13745;51.470;9.894;2023-04-23T00:51:33;98431.97;;;19.31;59.12
25947;BME280;13745;51.470;9.894;2023-04-23T00:54:18;98438.34;;;19.27;59.30
25947;BME280;13745;51.470;9.894;2023-04-23T00:57:04;98436.97;;;19.22;59.49
25947;BME280;13745;51.470;9.894;2023-04-23T00:59:52;98433.78;;;19.17;59.87
25947;BME280;13745;51.470;9.894;2023-04-23T01:02:40;98429.75;;;19.11;60.01
25947;BME280;13745;51.470;9.894;2023-04-23T01:05:26;98436.25;;;19.05;60.39
25947;BME280;13745;51.470;9.894;2023-04-23T01:08:14;98426.88;;;19.01;60.71
25947;BME280;13745;51.470;9.894;2023-04-23T01:11:01;98422.66;;;18.99;60.98
25947;BME280;13745;51.470;9.894;2023-04-23T01:13:46;98420.31;;;18.94;60.90
25947;BME280;13745;51.470;9.894;2023-04-23T01:16:33;98419.78;;;18.89;61.31
25947;BME280;13745;51.470;9.894;2023-04-23T01:19:18;98424.47;;;18.84;61.43
25947;BME280;13745;51.470;9.894;2023-04-23T01:22:08;98416.88;;;18.79;61.83
25947;BME280;13745;51.470;9.894;2023-04-23T01:24:54;98412.75;;;18.75;61.75
25947;BME280;13745;51.470;9.894;2023-04-23T01:27:39;98417.38;;;18.72;62.16
25947;BME280;13745;51.470;9.894;2023-04-23T01:30:26;98415.84;;;18.68;62.57
25947;BME280;13745;51.470;9.894;2023-04-23T01:33:11;98416.88;;;18.65;62.57
25947;BME280;13745;51.470;9.894;2023-04-23T01:35:57;98414.34;;;18.64;62.84
25947;BME280;13745;51.470;9.894;2023-04-23T01:38:44;98424.06;;;18.62;63.02
25947;BME280;13745;51.470;9.894;2023-04-23T01:41:30;98426.88;;;18.59;63.30
25947;BME280;13745;51.470;9.894;2023-04-23T01:44:15;98422.78;;;18.55;63.43
25947;BME280;13745;51.470;9.894;2023-04-23T01:47:00;98425.66;;;18.50;63.73
25947;BME280;13745;51.470;9.894;2023-04-23T01:49:48;98426.72;;;18.47;63.78
25947;BME280;13745;51.470;9.894;2023-04-23T01:52:34;98426.03;;;18.44;64.03
25947;BME280;13745;51.470;9.894;2023-04-23T01:55:21;98426.22;;;18.41;64.31
25947;BME280;13745;51.470;9.894;2023-04-23T01:58:06;98433.38;;;18.39;64.33
25947;BME280;13745;51.470;9.894;2023-04-23T02:00:51;98429.13;;;18.36;64.35
25947;BME280;13745;51.470;9.894;2023-04-23T02:03:36;98432.78;;;18.34;64.73
25947;BME280;13745;51.470;9.894;2023-04-23T02:06:21;98430.25;;;18.32;64.95
25947;BME280;13745;51.470;9.894;2023-04-23T02:09:06;98435.69;;;18.29;65.09
25947;BME280;13745;51.470;9.894;2023-04-23T02:11:53;98432.31;;;18.27;65.39
25947;BME280;13745;51.470;9.894;2023-04-23T02:14:38;98439.44;;;18.25;65.60
25947;BME280;13745;51.470;9.894;2023-04-23T02:17:23;98430.81;;;18.23;65.62
25947;BME280;13745;51.470;9.894;2023-04-23T02:20:08;98426.50;;;18.22;65.90
25947;BME280;13745;51.470;9.894;2023-04-23T02:22:54;98423.97;;;18.20;65.93
25947;BME280;13745;51.470;9.894;2023-04-23T02:25:39;98425.81;;;18.18;66.19
25947;BME280;13745;51.470;9.894;2023-04-23T02:28:27;98425.94;;;18.17;66.47
25947;BME280;13745;51.470;9.894;2023-04-23T02:31:12;98430.44;;;18.15;66.61
25947;BME280;13745;51.470;9.894;2023-04-23T02:33:59;98438.41;;;18.13;66.71
25947;BME280;13745;51.470;9.894;2023-04-23T02:36:44;98431.28;;;18.15;66.73
25947;BME280;13745;51.470;9.894;2023-04-23T02:39:30;98443.53;;;18.15;67.02
25947;BME280;13745;51.470;9.894;2023-04-23T02:42:15;98426.97;;;18.14;67.12
25947;BME280;13745;51.470;9.894;2023-04-23T02:45:01;98429.59;;;18.14;67.09
25947;BME280;13745;51.470;9.894;2023-04-23T02:47:46;98429.59;;;18.14;67.16
25947;BME280;13745;51.470;9.894;2023-04-23T02:50:32;98432.31;;;18.13;67.51
25947;BME280;13745;51.470;9.894;2023-04-23T02:53:18;98427.97;;;18.12;67.51
25947;BME280;13745;51.470;9.894;2023-04-23T02:56:04;98431.47;;;18.12;67.52
25947;BME280;13745;51.470;9.894;2023-04-23T02:58:51;98434.00;;;18.14;67.61
25947;BME280;13745;51.470;9.894;2023-04-23T03:01:37;98441.09;;;18.12;67.92
25947;BME280;13745;51.470;9.894;2023-04-23T03:04:25;98444.47;;;18.14;67.90
25947;BME280;13745;51.470;9.894;2023-04-23T03:07:10;98444.47;;;18.14;67.63
25947;BME280;13745;51.470;9.894;2023-04-23T03:09:56;98455.91;;;18.13;67.53
25947;BME280;13745;51.470;9.894;2023-04-23T03:12:41;98463.84;;;18.11;67.72
25947;BME280;13745;51.470;9.894;2023-04-23T03:15:27;98470.88;;;18.11;67.89
25947;BME280;13745;51.470;9.894;2023-04-23T03:18:14;98471.06;;;18.08;67.27
25947;BME280;13745;51.470;9.894;2023-04-23T03:21:02;98466.06;;;18.03;66.88
25947;BME280;13745;51.470;9.894;2023-04-23T03:23:47;98467.19;;;17.99;66.94
25947;BME280;13745;51.470;9.894;2023-04-23T03:26:33;98468.41;;;17.93;66.83
25947;BME280;13745;51.470;9.894;2023-04-23T03:29:19;98470.47;;;17.88;66.75
25947;BME280;13745;51.470;9.894;2023-04-23T03:32:04;98468.09;;;17.84;66.65
25947;BME280;13745;51.470;9.894;2023-04-23T03:34:50;98459.72;;;17.77;66.66
25947;BME280;13745;51.470;9.894;2023-04-23T03:37:36;98472.19;;;17.74;66.54
25947;BME280;13745;51.470;9.894;2023-04-23T03:40:23;98462.84;;;17.68;66.37
25947;BME280;13745;51.470;9.894;2023-04-23T03:43:12;98473.66;;;17.62;66.42
25947;BME280;13745;51.470;9.894;2023-04-23T03:46:20;98477.59;;;17.55;66.59
25947;BME280;13745;51.470;9.894;2023-04-23T03:49:04;98478.06;;;17.46;66.67
25947;BME280;13745;51.470;9.894;2023-04-23T03:51:51;98473.19;;;17.39;66.61
25947;BME280;13745;51.470;9.894;2023-04-23T03:54:37;98482.25;;;17.34;66.68
25947;BME280;13745;51.470;9.894;2023-04-23T03:57:28;98486.97;;;17.27;66.83
25947;BME280;13745;51.470;9.894;2023-04-23T04:00:28;98488.31;;;17.19;66.68
25947;BME280;13745;51.470;9.894;2023-04-23T04:03:13;98499.22;;;17.11;66.68
25947;BME280;13745;51.470;9.894;2023-04-23T04:05:59;98507.25;;;17.08;67.17
25947;BME280;13745;51.470;9.894;2023-04-23T04:08:45;98506.72;;;17.01;67.00
25947;BME280;13745;51.470;9.894;2023-04-23T04:11:30;98506.97;;;16.97;67.02
25947;BME280;13745;51.470;9.894;2023-04-23T04:14:15;98508.91;;;16.93;67.03
25947;BME280;13745;51.470;9.894;2023-04-23T04:17:00;98507.38;;;16.89;67.28
25947;BME280;13745;51.470;9.894;2023-04-23T04:19:45;98506.69;;;16.85;67.55
25947;BME280;13745;51.470;9.894;2023-04-23T04:22:31;98508.56;;;16.83;67.28
25947;BME280;13745;51.470;9.894;2023-04-23T04:25:21;98514.84;;;16.79;67.64
25947;BME280;13745;51.470;9.894;2023-04-23T04:28:06;98519.34;;;16.77;67.36
25947;BME280;13745;51.470;9.894;2023-04-23T04:30:52;98520.25;;;16.76;67.67
25947;BME280;13745;51.470;9.894;2023-04-23T04:33:40;98523.72;;;16.77;67.67
25947;BME280;13745;51.470;9.894;2023-04-23T04:36:26;98518.56;;;16.75;67.90
25947;BME280;13745;51.470;9.894;2023-04-23T04:39:12;98521.19;;;16.75;67.58
25947;BME280;13745;51.470;9.894;2023-04-23T04:41:58;98527.34;;;16.74;67.69
25947;BME280;13745;51.470;9.894;2023-04-23T04:44:45;98523.81;;;16.75;67.85
25947;BME280;13745;51.470;9.894;2023-04-23T04:47:30;98531.84;;;16.72;67.86
25947;BME280;13745;51.470;9.894;2023-04-23T04:50:16;98526.66;;;16.71;67.72
25947;BME280;13745;51.470;9.894;2023-04-23T04:53:01;98530.13;;;16.71;68.10
25947;BME280;13745;51.470;9.894;2023-04-23T04:55:46;98531.03;;;16.70;68.41
25947;BME280;13745;51.470;9.894;2023-04-23T04:58:32;98527.59;;;16.70;68.13
25947;BME280;13745;51.470;9.894;2023-04-23T05:01:20;98531.00;;;16.72;68.40
25947;BME280;13745;51.470;9.894;2023-04-23T05:04:06;98529.13;;;16.74;68.31
25947;BME280;13745;51.470;9.894;2023-04-23T05:06:51;98537.75;;;16.76;68.65
25947;BME280;13745;51.470;9.894;2023-04-23T05:09:36;98538.50;;;16.78;68.47
25947;BME280;13745;51.470;9.894;2023-04-23T05:12:21;98541.91;;;16.80;68.40
25947;BME280;13745;51.470;9.894;2023-04-23T05:15:09;98540.19;;;16.79;68.64
25947;BME280;13745;51.470;9.894;2023-04-23T05:17:55;98544.53;;;16.80;68.35
25947;BME280;13745;51.470;9.894;2023-04-23T05:20:40;98543.59;;;16.81;68.38
25947;BME280;13745;51.470;9.894;2023-04-23T05:23:25;98541.91;;;16.80;68.46
25947;BME280;13745;51.470;9.894;2023-04-23T05:26:10;98539.34;;;16.78;67.99
25947;BME280;13745;51.470;9.894;2023-04-23T05:28:56;98537.56;;;16.79;68.60
25947;BME280;13745;51.470;9.894;2023-04-23T05:31:42;98539.44;;;16.77;68.85
25947;BME280;13745;51.470;9.894;2023-04-23T05:34:27;98555.00;;;16.80;68.95
25947;BME280;13745;51.470;9.894;2023-04-23T05:37:12;98546.22;;;16.81;68.89
25947;BME280;13745;51.470;9.894;2023-04-23T05:39:57;98549.59;;;16.83;68.81
25947;BME280;13745;51.470;9.894;2023-04-23T05:42:42;98546.78;;;16.86;69.15
25947;BME280;13745;51.470;9.894;2023-04-23T05:45:27;98545.97;;;16.85;69.59
25947;BME280;13745;51.470;9.894;2023-04-23T05:48:14;98545.97;;;16.85;69.47
25947;BME280;13745;51.470;9.894;2023-04-23T05:50:59;98552.88;;;16.87;68.98
25947;BME280;13745;51.470;9.894;2023-04-23T05:53:44;98553.66;;;16.89;69.06
25947;BME280;13745;51.470;9.894;2023-04-23T05:56:29;98543.25;;;16.87;69.08
25947;BME280;13745;51.470;9.894;2023-04-23T05:59:14;98526.78;;;16.85;69.17
25947;BME280;13745;51.470;9.894;2023-04-23T06:01:59;98521.56;;;16.85;69.50
25947;BME280;13745;51.470;9.894;2023-04-23T06:04:45;98547.72;;;16.85;69.64
25947;BME280;13745;51.470;9.894;2023-04-23T06:07:31;98553.72;;;16.87;69.38
25947;BME280;13745;51.470;9.894;2023-04-23T06:10:16;98553.59;;;16.90;69.32
25947;BME280;13745;51.470;9.894;2023-04-23T06:13:01;98559.50;;;16.94;69.03
25947;BME280;13745;51.470;9.894;2023-04-23T06:15:46;98560.09;;;16.99;69.14
25947;BME280;13745;51.470;9.894;2023-04-23T06:18:31;98570.31;;;17.03;69.26
25947;BME280;13745;51.470;9.894;2023-04-23T06:21:18;98570.75;;;17.11;69.15
25947;BME280;13745;51.470;9.894;2023-04-23T06:24:04;98566.97;;;17.17;69.06
25947;BME280;13745;51.470;9.894;2023-04-23T06:26:50;98572.56;;;17.27;69.17
25947;BME280;13745;51.470;9.894;2023-04-23T06:29:37;98572.91;;;17.36;68.86
25947;BME280;13745;51.470;9.894;2023-04-23T06:32:23;98568.81;;;17.48;68.73
25947;BME280;13745;51.470;9.894;2023-04-23T06:35:08;98565.66;;;17.57;68.62
25947;BME280;13745;51.470;9.894;2023-04-23T06:37:55;98563.47;;;17.65;68.62
25947;BME280;13745;51.470;9.894;2023-04-23T06:40:40;98562.81;;;17.78;68.59
25947;BME280;13745;51.470;9.894;2023-04-23T06:43:25;98559.25;;;17.94;68.71
25947;BME280;13745;51.470;9.894;2023-04-23T06:46:36;98570.13;;;18.18;68.71
25947;BME280;13745;51.470;9.894;2023-04-23T06:49:22;98572.59;;;18.36;68.15
25947;BME280;13745;51.470;9.894;2023-04-23T06:52:07;98564.97;;;18.47;67.90
25947;BME280;13745;51.470;9.894;2023-04-23T06:54:53;98559.34;;;18.53;67.85
25947;BME280;13745;51.470;9.894;2023-04-23T06:57:38;98555.53;;;18.59;67.17
25947;BME280;13745;51.470;9.894;2023-04-23T07:00:23;98565.50;;;18.68;66.82
25947;BME280;13745;51.470;9.894;2023-04-23T07:03:09;98560.84;;;18.73;66.24
25947;BME280;13745;51.470;9.894;2023-04-23T07:05:54;98556.06;;;18.79;65.46
25947;BME280;13745;51.470;9.894;2023-04-23T07:08:39;98555.50;;;18.89;65.31
25947;BME280;13745;51.470;9.894;2023-04-23T07:11:26;98538.34;;;18.97;64.79
25947;BME280;13745;51.470;9.894;2023-04-23T07:14:12;98547.13;;;19.11;64.11
25947;BME280;13745;51.470;9.894;2023-04-23T07:16:57;98548.34;;;19.19;63.71
25947;BME280;13745;51.470;9.894;2023-04-23T07:19:42;98544.25;;;19.29;63.34
25947;BME280;13745;51.470;9.894;2023-04-23T07:22:27;98546.38;;;19.37;63.02
25947;BME280;13745;51.470;9.894;2023-04-23T07:25:13;98540.94;;;19.40;63.18
25947;BME280;13745;51.470;9.894;2023-04-23T07:27:59;98539.78;;;19.44;62.71
25947;BME280;13745;51.470;9.894;2023-04-23T07:30:44;98541.00;;;19.53;62.50
25947;BME280;13745;51.470;9.894;2023-04-23T07:33:29;98549.47;;;19.58;62.57
25947;BME280;13745;51.470;9.894;2023-04-23T07:36:14;98544.66;;;19.64;61.81
25947;BME280;13745;51.470;9.894;2023-04-23T07:38:59;98547.75;;;19.71;61.11
25947;BME280;13745;51.470;9.894;2023-04-23T07:41:45;98551.75;;;19.77;60.67
25947;BME280;13745;51.470;9.894;2023-04-23T07:44:32;98536.53;;;19.82;60.32
25947;BME280;13745;51.470;9.894;2023-04-23T07:47:17;98539.72;;;19.87;59.88
25947;BME280;13745;51.470;9.894;2023-04-23T07:50:03;98540.34;;;19.90;59.90
25947;BME280;13745;51.470;9.894;2023-04-23T07:52:48;98536.50;;;19.96;58.80
25947;BME280;13745;51.470;9.894;2023-04-23T07:55:34;98535.03;;;20.05;58.92
25947;BME280;13745;51.470;9.894;2023-04-23T07:58:20;98523.16;;;20.12;58.53
25947;BME280;13745;51.470;9.894;2023-04-23T08:01:06;98520.03;;;20.19;58.54
25947;BME280;13745;51.470;9.894;2023-04-23T08:03:52;98513.09;;;20.31;57.96
25947;BME280;13745;51.470;9.894;2023-04-23T08:06:38;98515.22;;;20.39;57.61
25947;BME280;13745;51.470;9.894;2023-04-23T08:09:24;98512.00;;;20.48;57.79
25947;BME280;13745;51.470;9.894;2023-04-23T08:12:10;98510.41;;;20.58;56.87
25947;BME280;13745;51.470;9.894;2023-04-23T08:14:55;98501.88;;;20.67;57.07
25947;BME280;13745;51.470;9.894;2023-04-23T08:17:48;98501.22;;;20.76;56.88
25947;BME280;13745;51.470;9.894;2023-04-23T08:20:33;98500.50;;;20.87;55.97
25947;BME280;13745;51.470;9.894;2023-04-23T08:23:18;98505.97;;;20.97;55.77
25947;BME280;13745;51.470;9.894;2023-04-23T08:26:03;98506.28;;;21.05;55.82
25947;BME280;13745;51.470;9.894;2023-04-23T08:28:49;98503.00;;;21.14;55.62
25947;BME280;13745;51.470;9.894;2023-04-23T08:31:35;98502.06;;;21.28;56.62
25947;BME280;13745;51.470;9.894;2023-04-23T08:34:21;98498.22;;;21.45;56.09
25947;BME280;13745;51.470;9.894;2023-04-23T08:37:06;98500.47;;;21.62;55.02
25947;BME280;13745;51.470;9.894;2023-04-23T08:39:51;98496.72;;;21.77;55.09
25947;BME280;13745;51.470;9.894;2023-04-23T08:42:38;98500.94;;;21.91;54.15
25947;BME280;13745;51.470;9.894;2023-04-23T08:45:25;98502.81;;;22.02;53.86
25947;BME280;13745;51.470;9.894;2023-04-23T08:48:10;98499.28;;;22.14;53.32
25947;BME280;13745;51.470;9.894;2023-04-23T08:50:58;98494.28;;;22.22;52.82
25947;BME280;13745;51.470;9.894;2023-04-23T08:53:49;98497.56;;;22.37;52.18
25947;BME280;13745;51.470;9.894;2023-04-23T08:56:35;98495.56;;;22.52;52.89
25947;BME280;13745;51.470;9.894;2023-04-23T08:59:21;98496.78;;;22.70;52.24
25947;BME280;13745;51.470;9.894;2023-04-23T09:02:06;98502.34;;;22.89;52.25
25947;BME280;13745;51.470;9.894;2023-04-23T09:04:53;98492.59;;;23.12;51.67
25947;BME280;13745;51.470;9.894;2023-04-23T09:07:40;98496.19;;;23.34;50.81
25947;BME280;13745;51.470;9.894;2023-04-23T09:10:25;98493.00;;;23.73;50.43
25947;BME280;13745;51.470;9.894;2023-04-23T09:13:11;98498.66;;;24.54;49.89
25947;BME280;13745;51.470;9.894;2023-04-23T09:15:56;98490.50;;;25.28;48.78
25947;BME280;13745;51.470;9.894;2023-04-23T09:18:42;98478.19;;;26.05;47.51
25947;BME280;13745;51.470;9.894;2023-04-23T09:21:27;98472.69;;;27.02;45.88
25947;BME280;13745;51.470;9.894;2023-04-23T09:24:13;98470.59;;;28.14;44.89
25947;BME280;13745;51.470;9.894;2023-04-23T09:27:00;98466.69;;;29.38;44.06
25947;BME280;13745;51.470;9.894;2023-04-23T09:29:48;98461.13;;;30.72;42.27
25947;BME280;13745;51.470;9.894;2023-04-23T09:32:37;98449.41;;;32.05;41.18
25947;BME280;13745;51.470;9.894;2023-04-23T09:35:26;98455.56;;;33.40;39.80
25947;BME280;13745;51.470;9.894;2023-04-23T09:38:11;98456.38;;;34.69;38.14
25947;BME280;13745;51.470;9.894;2023-04-23T09:40:58;98453.13;;;35.83;36.69
25947;BME280;13745;51.470;9.894;2023-04-23T09:43:46;98445.09;;;36.69;35.50
25947;BME280;13745;51.470;9.894;2023-04-23T09:46:33;98440.34;;;36.38;34.92
25947;BME280;13745;51.470;9.894;2023-04-23T09:49:18;98442.97;;;36.77;34.55
25947;BME280;13745;51.470;9.894;2023-04-23T09:52:05;98428.75;;;37.60;33.95
25947;BME280;13745;51.470;9.894;2023-04-23T09:54:50;98445.41;;;38.27;33.25
25947;BME280;13745;51.470;9.894;2023-04-23T09:57:37;98439.88;;;38.40;32.10
25947;BME280;13745;51.470;9.894;2023-04-23T10:00:22;98448.44;;;37.35;31.93
25947;BME280;13745;51.470;9.894;2023-04-23T10:03:11;98459.84;;;36.26;32.48
25947;BME280;13745;51.470;9.894;2023-04-23T10:05:57;98459.28;;;35.43;32.83
25947;BME280;13745;51.470;9.894;2023-04-23T10:08:43;98456.88;;;34.30;33.31
25947;BME280;13745;51.470;9.894;2023-04-23T10:11:28;98451.78;;;33.20;33.79
25947;BME280;13745;51.470;9.894;2023-04-23T10:14:15;98462.38;;;32.39;34.71
25947;BME280;13745;51.470;9.894;2023-04-23T10:17:02;98458.53;;;31.65;35.73
25947;BME280;13745;51.470;9.894;2023-04-23T10:19:48;98458.84;;;31.00;35.46
25947;BME280;13745;51.470;9.894;2023-04-23T10:22:37;98453.94;;;30.48;35.88
25947;BME280;13745;51.470;9.894;2023-04-23T10:25:23;98442.94;;;30.18;37.43
25947;BME280;13745;51.470;9.894;2023-04-23T10:28:09;98438.06;;;30.06;37.54
25947;BME280;13745;51.470;9.894;2023-04-23T10:30:59;98454.59;;;29.93;37.62
25947;BME280;13745;51.470;9.894;2023-04-23T10:33:46;98448.41;;;29.68;37.61
25947;BME280;13745;51.470;9.894;2023-04-23T10:36:33;98443.13;;;29.42;37.64
25947;BME280;13745;51.470;9.894;2023-04-23T10:39:19;98442.72;;;29.21;38.02
25947;BME280;13745;51.470;9.894;2023-04-23T10:42:05;98444.13;;;28.91;37.71
25947;BME280;13745;51.470;9.894;2023-04-23T10:44:54;98442.38;;;28.47;37.97
25947;BME280;13745;51.470;9.894;2023-04-23T10:47:42;98441.66;;;28.02;38.72
25947;BME280;13745;51.470;9.894;2023-04-23T10:50:31;98440.59;;;27.59;38.91
25947;BME280;13745;51.470;9.894;2023-04-23T10:53:20;98449.06;;;27.27;39.23
25947;BME280;13745;51.470;9.894;2023-04-23T10:56:05;98452.66;;;27.08;39.67
25947;BME280;13745;51.470;9.894;2023-04-23T10:58:52;98445.81;;;27.05;40.17
25947;BME280;13745;51.470;9.894;2023-04-23T11:01:38;98441.47;;;27.04;40.18
25947;BME280;13745;51.470;9.894;2023-04-23T11:04:26;98438.81;;;27.04;40.25
25947;BME280;13745;51.470;9.894;2023-04-23T11:07:12;98437.69;;;27.07;40.34
25947;BME280;13745;51.470;9.894;2023-04-23T11:09:58;98442.56;;;27.11;40.23
25947;BME280;13745;51.470;9.894;2023-04-23T11:12:43;98441.03;;;27.09;40.40
25947;BME280;13745;51.470;9.894;2023-04-23T11:15:29;98432.66;;;27.04;40.35
25947;BME280;13745;51.470;9.894;2023-04-23T11:18:14;98426.59;;;27.11;39.98
25947;BME280;13745;51.470;9.894;2023-04-23T11:21:03;98419.16;;;27.15;39.88
25947;BME280;13745;51.470;9.894;2023-04-23T11:23:48;98429.16;;;27.03;39.75
25947;BME280;13745;51.470;9.894;2023-04-23T11:26:33;98423.22;;;26.82;39.58
25947;BME280;13745;51.470;9.894;2023-04-23T11:29:21;98429.84;;;26.68;40.46
25947;BME280;13745;51.470;9.894;2023-04-23T11:32:08;98422.69;;;26.69;40.23
25947;BME280;13745;51.470;9.894;2023-04-23T11:34:56;98415.78;;;26.85;40.36
25947;BME280;13745;51.470;9.894;2023-04-23T11:37:45;98411.47;;;27.02;40.74
25947;BME280;13745;51.470;9.894;2023-04-23T11:40:31;98398.31;;;27.10;40.09
25947;BME280;13745;51.470;9.894;2023-04-23T11:43:18;98393.06;;;27.19;39.85
25947;BME280;13745;51.470;9.894;2023-04-23T11:46:04;98370.78;;;27.37;39.79
25947;BME280;13745;51.470;9.894;2023-04-23T11:48:50;98385.25;;;27.53;40.30
25947;BME280;13745;51.470;9.894;2023-04-23T11:51:40;98374.00;;;27.59;40.21
25947;BME280;13745;51.470;9.894;2023-04-23T11:54:27;98374.53;;;27.62;39.95
25947;BME280;13745;51.470;9.894;2023-04-23T11:57:13;98375.28;;;27.55;39.63
25947;BME280;13745;51.470;9.894;2023-04-23T11:59:58;98373.38;;;27.47;39.76
25947;BME280;13745;51.470;9.894;2023-04-23T12:02:51;98360.31;;;27.36;40.17
25947;BME280;13745;51.470;9.894;2023-04-23T12:05:39;98366.38;;;27.28;39.94
25947;BME280;13745;51.470;9.894;2023-04-23T12:08:30;98365.09;;;27.14;39.35
25947;BME280;13745;51.470;9.894;2023-04-23T12:11:22;98359.47;;;26.90;39.39
25947;BME280;13745;51.470;9.894;2023-04-23T12:14:09;98365.50;;;26.65;39.17
25947;BME280;13745;51.470;9.894;2023-04-23T12:16:55;98362.50;;;26.40;39.09
25947;BME280;13745;51.470;9.894;2023-04-23T12:19:42;98363.22;;;26.32;39.42
25947;BME280;13745;51.470;9.894;2023-04-23T12:22:27;98365.41;;;26.37;39.48
25947;BME280;13745;51.470;9.894;2023-04-23T12:25:12;98347.50;;;26.49;39.25
25947;BME280;13745;51.470;9.894;2023-04-23T12:27:59;98354.84;;;26.65;39.11
25947;BME280;13745;51.470;9.894;2023-04-23T12:30:45;98351.31;;;26.74;39.77
25947;BME280;13745;51.470;9.894;2023-04-23T12:33:30;98345.09;;;26.83;40.37
25947;BME280;13745;51.470;9.894;2023-04-23T12:36:15;98336.91;;;26.94;40.33
25947;BME280;13745;51.470;9.894;2023-04-23T12:39:20;98336.59;;;26.97;40.07
25947;BME280;13745;51.470;9.894;2023-04-23T12:42:06;98347.50;;;26.76;39.63
25947;BME280;13745;51.470;9.894;2023-04-23T12:45:04;98335.88;;;26.50;40.03
25947;BME280;13745;51.470;9.894;2023-04-23T12:47:49;98340.84;;;26.25;39.87
25947;BME280;13745;51.470;9.894;2023-04-23T12:50:35;98340.06;;;25.96;40.88
25947;BME280;13745;51.470;9.894;2023-04-23T12:53:20;98341.25;;;25.74;41.04
25947;BME280;13745;51.470;9.894;2023-04-23T12:56:05;98339.00;;;25.50;40.91
25947;BME280;13745;51.470;9.894;2023-04-23T12:58:50;98340.50;;;25.24;41.22
25947;BME280;13745;51.470;9.894;2023-04-23T13:01:36;98337.53;;;24.98;41.64
25947;BME280;13745;51.470;9.894;2023-04-23T13:04:22;98337.50;;;24.78;41.87
25947;BME280;13745;51.470;9.894;2023-04-23T13:07:07;98336.19;;;24.63;41.78
25947;BME280;13745;51.470;9.894;2023-04-23T13:09:52;98336.16;;;24.53;42.11
25947;BME280;13745;51.470;9.894;2023-04-23T13:12:37;98325.13;;;24.48;42.15
25947;BME280;13745;51.470;9.894;2023-04-23T13:15:23;98324.28;;;24.48;42.13
25947;BME280;13745;51.470;9.894;2023-04-23T13:18:09;98317.16;;;24.48;42.07
25947;BME280;13745;51.470;9.894;2023-04-23T13:20:55;98317.06;;;24.50;42.01
25947;BME280;13745;51.470;9.894;2023-04-23T13:23:40;98312.44;;;24.52;41.89
25947;BME280;13745;51.470;9.894;2023-04-23T13:26:25;98314.41;;;24.50;41.56
25947;BME280;13745;51.470;9.894;2023-04-23T13:29:13;98304.34;;;24.53;42.03
25947;BME280;13745;51.470;9.894;2023-04-23T13:31:59;98296.13;;;24.56;41.55
25947;BME280;13745;51.470;9.894;2023-04-23T13:34:45;98290.56;;;24.59;41.64
25947;BME280;13745;51.470;9.894;2023-04-23T13:37:30;98290.00;;;24.65;41.86
25947;BME280;13745;51.470;9.894;2023-04-23T13:40:16;98280.81;;;24.70;41.11
25947;BME280;13745;51.470;9.894;2023-04-23T13:43:01;98276.50;;;24.69;41.67
25947;BME280;13745;51.470;9.894;2023-04-23T13:45:46;98271.44;;;24.65;41.41
25947;BME280;13745;51.470;9.894;2023-04-23T13:48:31;98273.00;;;24.58;41.40
25947;BME280;13745;51.470;9.894;2023-04-23T13:51:18;98260.69;;;24.48;41.55
25947;BME280;13745;51.470;9.894;2023-04-23T13:54:03;98261.09;;;24.43;41.36
25947;BME280;13745;51.470;9.894;2023-04-23T13:56:48;98265.25;;;24.36;41.65
25947;BME280;13745;51.470;9.894;2023-04-23T13:59:34;98252.50;;;24.30;41.36
25947;BME280;13745;51.470;9.894;2023-04-23T14:02:19;98244.16;;;24.25;41.13
25947;BME280;13745;51.470;9.894;2023-04-23T14:05:05;98243.13;;;24.16;40.96
25947;BME280;13745;51.470;9.894;2023-04-23T14:07:53;98244.66;;;24.09;40.61
25947;BME280;13745;51.470;9.894;2023-04-23T14:10:38;98238.06;;;24.03;41.21
25947;BME280;13745;51.470;9.894;2023-04-23T14:13:23;98240.16;;;24.00;40.51
25947;BME280;13745;51.470;9.894;2023-04-23T14:16:09;98225.78;;;23.93;40.64
25947;BME280;13745;51.470;9.894;2023-04-23T14:18:53;98228.66;;;23.90;41.28
25947;BME280;13745;51.470;9.894;2023-04-23T14:21:38;98217.25;;;23.89;41.08
25947;BME280;13745;51.470;9.894;2023-04-23T14:24:33;98216.41;;;23.89;41.10
25947;BME280;13745;51.470;9.894;2023-04-23T14:27:18;98221.31;;;23.93;41.17
25947;BME280;13745;51.470;9.894;2023-04-23T14:30:04;98226.06;;;23.99;41.57
25947;BME280;13745;51.470;9.894;2023-04-23T14:32:49;98225.81;;;24.02;41.25
25947;BME280;13745;51.470;9.894;2023-04-23T14:35:36;98226.63;;;24.03;40.99
25947;BME280;13745;51.470;9.894;2023-04-23T14:38:21;98218.56;;;24.04;41.25
25947;BME280;13745;51.470;9.894;2023-04-23T14:41:08;98221.06;;;24.06;41.47